Time;durP1;ratioP1;P1;durP2;ratioP2;P2;SDS_P1;SDS_P2;PMS_P1;PMS_P2;Temp;Humidity;BMP_temperature;BMP_pressure;BME280_temperature;BME280_humidity;BME280_pressure;Samples;Min_cycle;Max_cycle;Signal;HPM_P1;HPM_P2
2022/02/08 00:00:38;;;;;;;20.65;4.65;;;8.10;99.90;;;;;;5115737;28;20474;-80
2022/02/08 00:03:04;;;;;;;18.60;4.82;;;8.20;99.90;;;;;;5116103;28;20043;-81
2022/02/08 00:05:30;;;;;;;25.33;3.78;;;8.20;99.90;;;;;;5115735;28;20042;-81
2022/02/08 00:07:56;;;;;;;22.30;3.97;;;8.20;99.90;;;;;;5117019;28;20016;-79
2022/02/08 00:10:23;;;;;;;16.20;3.28;;;8.20;99.90;;;;;;5115272;28;20043;-80
2022/02/08 00:12:49;;;;;;;19.20;4.40;;;8.20;99.90;;;;;;5115320;28;20047;-79
2022/02/08 00:15:14;;;;;;;20.67;3.40;;;8.20;99.90;;;;;;5114961;28;20097;-80
2022/02/08 00:17:40;;;;;;;31.10;5.05;;;8.30;99.90;;;;;;5114579;28;20081;-80
2022/02/08 00:20:07;;;;;;;20.95;3.75;;;8.30;99.90;;;;;;5115050;28;20031;-80
2022/02/08 00:22:34;;;;;;;23.50;4.13;;;8.30;99.90;;;;;;5115472;28;20439;-80
2022/02/08 00:25:00;;;;;;;26.92;4.28;;;8.30;99.90;;;;;;5114718;28;20024;-80
2022/02/08 00:27:26;;;;;;;22.85;3.85;;;8.30;99.90;;;;;;5115771;28;20108;-79
2022/02/08 00:29:52;;;;;;;17.15;3.78;;;8.30;99.90;;;;;;5116874;28;20047;-79
2022/02/08 00:32:18;;;;;;;23.45;3.97;;;8.30;99.90;;;;;;5114486;28;20478;-80
2022/02/08 00:34:43;;;;;;;25.23;5.18;;;8.30;99.90;;;;;;5115229;28;20050;-80
2022/02/08 00:37:10;;;;;;;17.60;4.10;;;8.30;99.90;;;;;;5115521;28;20080;-80
2022/02/08 00:39:37;;;;;;;26.13;5.30;;;8.30;99.90;;;;;;5115179;28;20020;-78
2022/02/08 00:42:06;;;;;;;21.42;4.78;;;8.30;99.90;;;;;;5117234;28;20027;-78
2022/02/08 00:44:39;;;;;;;26.40;4.30;;;8.30;99.90;;;;;;5115620;28;20027;-78
2022/02/08 00:47:41;;;;;;;23.58;4.43;;;8.40;99.90;;;;;;5114250;28;20015;-78
2022/02/08 00:50:05;;;;;;;35.25;6.28;;;8.30;99.90;;;;;;5111840;28;20493;-79
2022/02/08 00:52:32;;;;;;;28.30;4.70;;;8.30;99.90;;;;;;5115047;28;20022;-79
2022/02/08 00:54:58;;;;;;;25.30;5.35;;;8.40;99.90;;;;;;5114467;28;20020;-79
2022/02/08 00:57:23;;;;;;;20.40;4.90;;;8.40;99.90;;;;;;5114625;28;20076;-79
2022/02/08 00:59:49;;;;;;;26.30;4.72;;;8.30;99.90;;;;;;5114378;28;20522;-80
2022/02/08 01:02:14;;;;;;;21.98;5.43;;;8.40;99.90;;;;;;5114596;28;20111;-78
2022/02/08 01:04:42;;;;;;;26.30;5.97;;;8.40;99.90;;;;;;5113663;28;20052;-79
2022/02/08 01:07:10;;;;;;;23.15;5.60;;;8.30;99.90;;;;;;5113115;28;20034;-77
2022/02/08 01:12:10;;;;;;;24.83;6.35;;;8.30;99.90;;;;;;5114210;28;20043;-78
2022/02/08 01:14:39;;;;;;;18.52;5.90;;;8.40;99.90;;;;;;5114090;28;20076;-77
2022/02/08 01:17:07;;;;;;;26.83;7.10;;;8.40;99.90;;;;;;5113893;28;20052;-76
2022/02/08 01:19:34;;;;;;;26.50;6.45;;;8.40;99.90;;;;;;5114030;28;20543;-77
2022/02/08 01:22:00;;;;;;;24.80;7.25;;;8.40;99.90;;;;;;5114092;28;20102;-77
2022/02/08 01:24:25;;;;;;;19.48;6.18;;;8.40;99.90;;;;;;5113960;28;20157;-79
2022/02/08 01:27:02;;;;;;;19.30;6.53;;;8.30;99.90;;;;;;5114454;28;20016;-77
2022/02/08 01:29:39;;;;;;;23.67;7.32;;;8.30;99.90;;;;;;5113193;28;20032;-77
2022/02/08 01:43:38;;;;;;;20.85;6.38;;;8.40;99.90;;;;;;5114682;28;20019;-78
2022/02/08 01:46:29;;;;;;;27.70;7.15;;;8.40;99.90;;;;;;5114105;28;20088;-78
2022/02/08 01:49:13;;;;;;;25.90;8.43;;;8.50;99.90;;;;;;5112458;28;20028;-78
2022/02/08 01:51:39;;;;;;;21.75;7.28;;;8.40;99.90;;;;;;5113155;28;20045;-78
2022/02/08 01:54:04;;;;;;;18.75;7.32;;;8.50;99.90;;;;;;5113258;28;20473;-78
2022/02/08 01:56:31;;;;;;;19.48;7.30;;;8.50;99.90;;;;;;5112592;28;20471;-78
2022/02/08 01:58:56;;;;;;;22.95;8.10;;;8.50;99.90;;;;;;5113149;28;20020;-78
2022/02/08 02:01:22;;;;;;;26.33;8.15;;;8.50;99.90;;;;;;5112854;28;20716;-77
2022/02/08 02:03:50;;;;;;;22.50;7.80;;;8.50;99.90;;;;;;5113598;28;20168;-77
2022/02/08 02:06:16;;;;;;;19.40;8.38;;;8.50;99.90;;;;;;5113060;28;20024;-77
2022/02/08 02:08:41;;;;;;;22.27;7.97;;;8.50;99.90;;;;;;5095045;28;20035;-77
2022/02/08 02:11:09;;;;;;;20.33;8.18;;;8.50;99.90;;;;;;5111903;28;20136;-77
2022/02/08 02:16:07;;;;;;;21.83;8.82;;;8.50;99.90;;;;;;5113357;28;20038;-77
2022/02/08 02:18:32;;;;;;;30.95;8.82;;;8.60;99.90;;;;;;5113030;28;20054;-78
2022/02/08 02:20:58;;;;;;;27.55;8.90;;;8.60;99.90;;;;;;5114197;28;20530;-77
2022/02/08 02:23:24;;;;;;;20.92;8.82;;;8.60;99.90;;;;;;5114110;28;20025;-77
2022/02/08 02:25:49;;;;;;;27.10;8.77;;;8.70;99.90;;;;;;5113795;28;20486;-77
2022/02/08 02:28:15;;;;;;;26.80;8.88;;;8.60;99.90;;;;;;5113463;28;20111;-77
2022/02/08 02:30:40;;;;;;;25.70;8.50;;;8.70;99.90;;;;;;5113982;28;20056;-76
2022/02/08 02:33:07;;;;;;;22.83;8.77;;;8.70;99.90;;;;;;5112827;28;20069;-79
2022/02/08 02:35:34;;;;;;;22.27;8.88;;;8.80;99.90;;;;;;5113690;28;20115;-77
2022/02/08 02:38:03;;;;;;;19.13;8.25;;;8.80;99.90;;;;;;5113274;28;20061;-77
2022/02/08 02:40:31;;;;;;;29.30;8.48;;;8.80;99.90;;;;;;5112654;28;20083;-77
2022/02/08 02:42:57;;;;;;;22.30;9.02;;;8.80;99.90;;;;;;5114094;28;20038;-76
2022/02/08 02:45:22;;;;;;;30.15;9.15;;;8.80;99.90;;;;;;5111606;28;20039;-77
2022/02/08 02:47:52;;;;;;;32.53;8.82;;;8.80;99.90;;;;;;5113278;28;20031;-77
2022/02/08 02:50:19;;;;;;;26.17;9.23;;;8.90;99.90;;;;;;5113181;28;20028;-77
2022/02/08 02:52:45;;;;;;;22.55;8.57;;;8.80;99.90;;;;;;5112158;28;20028;-78
2022/02/08 02:55:15;;;;;;;20.80;9.10;;;8.80;99.90;;;;;;5112251;28;20024;-77
2022/02/08 02:57:43;;;;;;;22.90;9.43;;;8.80;99.90;;;;;;5112832;28;20085;-77
2022/02/08 03:00:15;;;;;;;25.38;9.82;;;8.80;99.90;;;;;;5112022;28;20145;-77
2022/02/08 03:18:36;;;;;;;26.73;11.05;;;8.90;99.90;;;;;;5137190;27;20523;-77
2022/02/08 03:21:07;;;;;;;27.00;10.43;;;8.90;99.90;;;;;;5137746;27;20039;-78
2022/02/08 03:23:34;;;;;;;21.98;9.98;;;8.90;99.90;;;;;;5136839;27;20109;-77
2022/02/08 03:26:00;;;;;;;31.92;11.20;;;8.90;99.90;;;;;;5136794;27;20543;-77
2022/02/08 03:28:25;;;;;;;29.40;12.43;;;8.90;99.90;;;;;;5135961;27;20022;-77
2022/02/08 03:30:52;;;;;;;28.70;10.50;;;8.90;99.90;;;;;;5137111;27;20084;-77
2022/02/08 03:33:18;;;;;;;29.00;11.70;;;8.90;99.90;;;;;;5136821;27;20019;-77
2022/02/08 03:35:45;;;;;;;28.85;10.35;;;9.00;99.90;;;;;;5136102;27;20027;-77
2022/02/08 03:38:16;;;;;;;25.45;9.50;;;9.00;99.90;;;;;;5136207;27;20383;-77
2022/02/08 03:40:52;;;;;;;26.85;11.05;;;9.00;99.90;;;;;;5136456;27;20026;-78
2022/02/08 03:45:49;;;;;;;23.85;9.40;;;9.00;99.90;;;;;;5136413;27;20023;-77
2022/02/08 03:48:18;;;;;;;21.80;9.63;;;9.00;99.90;;;;;;5135931;27;20027;-78
2022/02/08 03:50:49;;;;;;;26.48;9.80;;;9.00;99.90;;;;;;5135239;27;20035;-78
2022/02/08 03:53:15;;;;;;;22.50;8.65;;;9.00;99.90;;;;;;5135296;27;20054;-77
2022/02/08 03:55:40;;;;;;;22.38;7.43;;;9.10;99.90;;;;;;5135434;27;20458;-77
2022/02/08 03:58:06;;;;;;;17.33;7.38;;;9.00;99.90;;;;;;5136257;27;20045;-78
2022/02/08 04:00:39;;;;;;;27.75;8.05;;;9.00;99.90;;;;;;5135942;27;20091;-78
2022/02/08 04:03:05;;;;;;;20.58;8.13;;;9.00;99.90;;;;;;5134828;27;20035;-78
2022/02/08 04:05:37;;;;;;;14.60;6.07;;;9.00;99.90;;;;;;5135594;27;20405;-77
2022/02/08 04:08:07;;;;;;;18.58;6.20;;;8.90;99.90;;;;;;5136184;27;20019;-78
2022/02/08 04:10:32;;;;;;;16.60;6.28;;;9.00;99.90;;;;;;5135378;27;20107;-78
2022/02/08 04:34:53;;;;;;;13.68;3.80;;;9.00;99.90;;;;;;5135087;27;20493;-78
2022/02/08 04:47:37;;;;;;;10.00;2.00;;;9.20;99.90;;;;;;5136178;27;20019;-77
2022/02/08 04:50:10;;;;;;;11.68;2.65;;;9.20;99.90;;;;;;5135730;27;20031;-77
2022/02/08 04:52:36;;;;;;;15.93;2.60;;;9.20;99.90;;;;;;5134777;27;20060;-77
2022/02/08 05:36:13;;;;;;;16.10;2.17;;;9.30;99.90;;;;;;5133935;27;20013;-77
2022/02/08 05:41:51;;;;;;;9.90;1.65;;;9.30;99.90;;;;;;5090481;28;20143;-78
2022/02/08 05:49:12;;;;;;;13.70;2.03;;;9.20;99.90;;;;;;5134224;27;20022;-76
2022/02/08 05:54:15;;;;;;;15.15;2.25;;;9.20;99.90;;;;;;5135208;27;20042;-77
2022/02/08 05:56:41;;;;;;;15.30;2.63;;;9.20;99.90;;;;;;5133359;27;20031;-77
2022/02/08 05:59:08;;;;;;;16.70;2.47;;;9.30;99.90;;;;;;5134877;27;20106;-77
2022/02/08 06:01:34;;;;;;;11.77;2.08;;;9.30;99.90;;;;;;5133983;27;20039;-78
2022/02/08 06:04:00;;;;;;;17.23;4.78;;;9.30;99.90;;;;;;5133111;27;20050;-76
2022/02/08 06:06:29;;;;;;;15.23;2.42;;;9.30;99.90;;;;;;5127067;28;20490;-79
2022/02/08 06:08:54;;;;;;;17.10;2.50;;;9.30;99.90;;;;;;5108999;28;20038;-78
2022/02/08 06:11:20;;;;;;;14.13;2.60;;;9.30;99.90;;;;;;5131754;28;20043;-77
2022/02/08 06:13:51;;;;;;;16.85;1.95;;;9.30;99.90;;;;;;5132316;27;20107;-78
2022/02/08 06:16:18;;;;;;;11.88;2.03;;;9.40;99.90;;;;;;5131996;27;20023;-78
2022/02/08 06:18:45;;;;;;;11.38;2.55;;;9.40;99.90;;;;;;5132052;27;20095;-79
2022/02/08 06:21:11;;;;;;;9.57;2.88;;;9.40;99.90;;;;;;5131984;28;20031;-78
2022/02/08 06:23:40;;;;;;;13.98;2.45;;;9.40;99.90;;;;;;5127795;28;20027;-79
2022/02/08 06:26:06;;;;;;;27.15;6.63;;;9.40;99.90;;;;;;5132467;28;20079;-77
2022/02/08 06:28:32;;;;;;;36.22;7.97;;;9.40;99.90;;;;;;5132461;28;20016;-77
2022/02/08 06:30:57;;;;;;;17.15;6.40;;;9.50;99.90;;;;;;5131460;28;20031;-79
2022/02/08 06:33:23;;;;;;;15.80;2.80;;;9.40;99.90;;;;;;5132512;28;20043;-77
2022/02/08 06:35:49;;;;;;;16.98;3.65;;;9.50;99.90;;;;;;5130253;27;20030;-79
2022/02/08 06:38:17;;;;;;;6.90;1.45;;;9.50;99.90;;;;;;5131443;27;20460;-79
2022/02/08 06:40:46;;;;;;;11.38;2.08;;;9.50;99.90;;;;;;5133053;27;20019;-79
2022/02/08 06:43:12;;;;;;;11.75;2.42;;;9.50;99.90;;;;;;5132483;28;20027;-79
2022/02/08 06:45:38;;;;;;;15.15;2.40;;;9.50;99.90;;;;;;5133055;27;20379;-78
2022/02/08 06:48:05;;;;;;;15.32;2.08;;;9.50;99.90;;;;;;5136252;27;20034;-79
2022/02/08 06:50:33;;;;;;;19.05;2.95;;;9.50;99.90;;;;;;5136045;27;20039;-78
2022/02/08 06:52:59;;;;;;;6.72;1.25;;;9.50;99.90;;;;;;5134262;27;20023;-77
2022/02/08 06:55:27;;;;;;;8.43;1.55;;;9.50;99.90;;;;;;5135960;27;20015;-77
2022/02/08 06:58:02;;;;;;;12.07;1.92;;;9.50;99.90;;;;;;5132929;27;20028;-77
2022/02/08 07:00:35;;;;;;;11.73;1.92;;;9.50;99.90;;;;;;5135701;27;20493;-78
2022/02/08 07:03:05;;;;;;;14.43;2.70;;;9.60;99.90;;;;;;5135698;27;20051;-79
2022/02/08 07:05:31;;;;;;;10.23;2.70;;;9.60;99.90;;;;;;5136091;27;20102;-76
2022/02/08 07:07:56;;;;;;;7.35;1.65;;;9.60;99.90;;;;;;5126943;27;20106;-79
2022/02/08 07:10:22;;;;;;;9.73;2.58;;;9.60;99.90;;;;;;5128795;27;20028;-78
2022/02/08 07:12:48;;;;;;;13.30;2.53;;;9.60;99.90;;;;;;5135026;27;20370;-78
2022/02/08 07:15:14;;;;;;;6.45;1.52;;;9.60;99.90;;;;;;5135014;27;20058;-79
2022/02/08 07:17:42;;;;;;;8.77;1.52;;;9.70;99.90;;;;;;5127501;27;20517;-78
2022/02/08 07:20:08;;;;;;;10.52;2.75;;;9.70;99.90;;;;;;5131867;27;20480;-77
2022/02/08 07:22:34;;;;;;;5.82;1.40;;;9.70;99.90;;;;;;5133237;27;20024;-78
2022/02/08 07:25:00;;;;;;;12.85;1.80;;;9.70;99.90;;;;;;5134127;27;20040;-78
2022/02/08 07:27:26;;;;;;;10.75;2.00;;;9.70;99.90;;;;;;5135645;27;20034;-77
2022/02/08 07:29:53;;;;;;;10.48;1.40;;;9.80;99.90;;;;;;5134937;27;20110;-78
2022/02/08 07:32:28;;;;;;;11.13;2.08;;;9.80;99.90;;;;;;5134801;27;20520;-79
2022/02/08 07:35:06;;;;;;;8.48;1.20;;;9.80;99.90;;;;;;5135206;27;20922;-77
2022/02/08 07:37:47;;;;;;;8.25;1.40;;;9.80;99.90;;;;;;5133785;27;20053;-77
2022/02/08 07:42:59;;;;;;;11.48;1.40;;;9.90;99.90;;;;;;5119441;27;20035;-77
2022/02/08 07:45:25;;;;;;;13.93;1.60;;;9.90;99.90;;;;;;5119225;27;20026;-78
2022/02/08 07:47:52;;;;;;;7.97;1.30;;;9.90;99.90;;;;;;5122774;27;20027;-78
2022/02/08 07:50:20;;;;;;;8.73;1.25;;;9.90;99.90;;;;;;5119600;27;20104;-76
2022/02/08 07:52:49;;;;;;;14.40;1.48;;;9.90;99.90;;;;;;5118049;27;20027;-77
2022/02/08 07:55:15;;;;;;;4.28;2.50;;;9.90;99.90;;;;;;5124593;27;20023;-77
2022/02/08 07:57:40;;;;;;;10.85;5.00;;;9.90;99.90;;;;;;5126120;27;20068;-78
2022/02/08 08:00:07;;;;;;;7.68;3.60;;;9.90;99.90;;;;;;5128002;27;20019;-78
2022/02/08 08:02:36;;;;;;;7.85;2.70;;;9.90;99.90;;;;;;5129850;27;20024;-76
2022/02/08 08:05:02;;;;;;;8.90;1.42;;;10.00;99.90;;;;;;5129973;27;20113;-77
2022/02/08 08:07:27;;;;;;;8.45;1.80;;;9.90;99.90;;;;;;5134797;27;20107;-77
2022/02/08 08:09:53;;;;;;;8.05;1.70;;;10.00;99.90;;;;;;5135499;27;20056;-77
2022/02/08 08:12:21;;;;;;;7.57;2.45;;;10.00;99.90;;;;;;5134926;27;20039;-79
2022/02/08 08:14:47;;;;;;;10.32;1.55;;;10.00;99.90;;;;;;5134421;27;20042;-79
2022/02/08 08:19:59;;;;;;;12.52;1.67;;;10.00;99.90;;;;;;5113989;27;20073;-77
2022/02/08 08:22:25;;;;;;;11.27;2.17;;;10.10;99.90;;;;;;5123092;27;20024;-77
2022/02/08 08:24:53;;;;;;;11.20;1.52;;;10.10;99.90;;;;;;5124953;27;20060;-78
2022/02/08 08:27:20;;;;;;;8.57;1.60;;;10.10;99.90;;;;;;5126949;27;20415;-77
2022/02/08 08:29:45;;;;;;;5.63;1.10;;;10.10;99.90;;;;;;5132401;27;20058;-77
2022/02/08 08:32:13;;;;;;;10.02;1.40;;;10.10;99.90;;;;;;5133099;27;20076;-78
2022/02/08 08:34:39;;;;;;;5.43;1.48;;;10.20;99.90;;;;;;5134838;27;20051;-78
2022/02/08 08:37:05;;;;;;;12.02;1.55;;;10.20;99.90;;;;;;5133534;27;20049;-85
2022/02/08 08:39:45;;;;;;;5.65;1.70;;;10.20;99.90;;;;;;5137689;27;20043;-79
2022/02/08 08:42:33;;;;;;;8.20;2.28;;;10.20;99.90;;;;;;5137311;27;20054;-77
2022/02/08 08:48:26;;;;;;;8.05;1.45;;;10.30;99.90;;;;;;5132899;27;20035;-80
2022/02/08 08:53:00;;;;;;;4.10;1.48;;;10.40;99.90;;;;;;5133142;27;20027;-81
2022/02/08 08:55:25;;;;;;;23.77;3.13;;;10.40;99.90;;;;;;5132814;27;20745;-77
2022/02/08 08:57:51;;;;;;;9.38;1.60;;;10.40;99.90;;;;;;5126736;27;20076;-79
2022/02/08 09:00:17;;;;;;;4.60;1.35;;;10.40;99.90;;;;;;5133518;27;20026;-78
2022/02/08 09:02:42;;;;;;;8.68;1.83;;;10.40;99.90;;;;;;5133016;27;20027;-79
2022/02/08 09:05:13;;;;;;;8.35;1.30;;;10.40;99.90;;;;;;5113848;27;20465;-77
2022/02/08 09:07:41;;;;;;;9.15;1.70;;;10.40;99.90;;;;;;5131847;27;20030;-77
2022/02/08 09:10:08;;;;;;;5.25;1.10;;;10.40;99.90;;;;;;5127365;27;20023;-77
2022/02/08 09:18:24;;;;;;;7.97;1.23;;;10.50;99.90;;;;;;5133894;27;20106;-77
2022/02/08 09:23:46;;;;;;;5.97;1.08;;;10.50;99.90;;;;;;5133798;27;20026;-79
2022/02/08 09:26:46;;;;;;;8.02;1.10;;;10.50;99.90;;;;;;5118890;27;20024;-78
2022/02/08 09:29:21;;;;;;;9.75;2.45;;;10.60;99.90;;;;;;5121485;27;20027;-80
2022/02/08 09:31:48;;;;;;;7.40;1.13;;;10.70;99.90;;;;;;5123572;27;20156;-80
2022/02/08 09:34:14;;;;;;;9.82;1.00;;;10.70;99.90;;;;;;5131929;27;20031;-80
2022/02/08 09:36:39;;;;;;;9.38;1.27;;;10.90;99.90;;;;;;5133667;27;20023;-79
2022/02/08 09:39:05;;;;;;;6.13;1.30;;;10.90;99.90;;;;;;5132902;27;20034;-79
2022/02/08 09:41:34;;;;;;;10.55;1.58;;;11.00;99.90;;;;;;5127959;27;20038;-78
2022/02/08 09:44:03;;;;;;;6.57;1.17;;;11.30;99.90;;;;;;5120393;27;20099;-78
2022/02/08 09:46:29;;;;;;;6.43;1.10;;;11.10;99.90;;;;;;5133205;27;20027;-78
2022/02/08 09:48:57;;;;;;;12.60;1.63;;;11.10;99.90;;;;;;5132164;27;20098;-79
2022/02/08 09:51:24;;;;;;;3.22;1.48;;;11.20;99.90;;;;;;5131777;27;20039;-79
2022/02/08 09:53:57;;;;;;;6.65;1.05;;;11.20;99.90;;;;;;5128130;27;20035;-78
2022/02/08 09:56:24;;;;;;;;;;;11.20;99.90;;;;;;5132573;27;20031;-78
2022/02/08 09:58:53;;;;;;;3.35;1.02;;;11.20;99.90;;;;;;5135165;27;19907;-80
2022/02/08 10:01:21;;;;;;;6.45;1.75;;;11.20;99.90;;;;;;5134542;27;20114;-79
2022/02/08 10:03:56;;;;;;;9.57;1.45;;;11.20;99.90;;;;;;5131312;27;20050;-78
2022/02/08 10:06:25;;;;;;;6.38;1.35;;;11.20;99.90;;;;;;5132684;27;20426;-79
2022/02/08 10:09:02;;;;;;;9.90;1.50;;;11.20;99.90;;;;;;5131814;27;20110;-81
2022/02/08 10:11:35;;;;;;;7.47;1.40;;;11.30;99.90;;;;;;5133064;27;20043;-79
2022/02/08 10:14:15;;;;;;;7.65;1.05;;;11.30;99.90;;;;;;5125975;28;20019;-77
2022/02/08 10:22:44;;;;;;;7.45;1.30;;;11.40;99.90;;;;;;5137038;27;20084;-80
2022/02/08 10:25:16;;;;;;;13.10;1.20;;;11.40;99.90;;;;;;5136550;27;20826;-78
2022/02/08 10:27:49;;;;;;;8.40;1.30;;;11.40;99.90;;;;;;5134597;27;20304;-79
2022/02/08 10:38:46;;;;;;;7.90;0.90;;;11.50;99.90;;;;;;5073611;27;20047;-79
2022/02/08 10:41:19;;;;;;;2.72;0.80;;;11.40;99.90;;;;;;5125614;27;20015;-79
2022/02/08 10:44:08;;;;;;;16.15;2.00;;;11.40;99.90;;;;;;5125792;27;20027;-80
2022/02/08 10:46:35;;;;;;;10.88;1.40;;;11.50;99.90;;;;;;5121526;27;20518;-81
2022/02/08 10:49:12;;;;;;;12.05;2.63;;;11.50;99.90;;;;;;5123188;27;20477;-79
2022/02/08 10:51:51;;;;;;;9.73;1.58;;;11.50;99.90;;;;;;5119178;27;20038;-79
2022/02/08 10:54:31;;;;;;;8.98;1.92;;;11.50;99.90;;;;;;5120951;27;20020;-79
2022/02/08 10:57:06;;;;;;;6.82;1.55;;;11.60;99.90;;;;;;5124129;27;20027;-77
2022/02/08 10:59:58;;;;;;;9.25;2.55;;;11.60;99.90;;;;;;5122690;27;20103;-78
2022/02/08 11:02:30;;;;;;;6.47;1.73;;;11.60;99.90;;;;;;5123393;27;20046;-79
2022/02/08 11:10:28;;;;;;;12.02;1.23;;;11.70;99.90;;;;;;5137261;27;20430;-78
2022/02/08 11:13:04;;;;;;;5.28;1.20;;;11.70;99.90;;;;;;5135620;27;20039;-80
2022/02/08 11:15:44;;;;;;;5.35;0.85;;;11.70;99.90;;;;;;5137269;27;20409;-78
2022/02/08 11:20:53;;;;;;;5.97;1.00;;;11.70;99.90;;;;;;5134547;27;20317;-78
2022/02/08 11:23:31;;;;;;;7.30;1.30;;;11.70;99.90;;;;;;5129177;27;20102;-77
2022/02/08 11:25:58;;;;;;;8.07;2.13;;;11.70;99.90;;;;;;5123830;27;20024;-76
2022/02/08 11:28:33;;;;;;;3.42;0.93;;;11.80;99.90;;;;;;5135890;27;20038;-78
2022/02/08 11:42:55;;;;;;;12.65;1.17;;;11.70;99.90;;;;;;5123906;27;20027;-79
2022/02/08 11:58:28;;;;;;;8.57;1.27;;;12.00;99.90;;;;;;5136523;27;20019;-78
2022/02/08 12:01:05;;;;;;;7.25;1.77;;;12.00;99.90;;;;;;5135945;27;20038;-78
2022/02/08 12:06:27;;;;;;;10.07;1.33;;;12.00;99.90;;;;;;5136804;27;20028;-77
2022/02/08 12:08:58;;;;;;;7.70;1.33;;;12.10;99.90;;;;;;5135035;27;20557;-77
2022/02/08 12:12:02;;;;;;;4.68;1.30;;;12.20;99.90;;;;;;5128691;27;20118;-77
2022/02/08 12:50:25;;;;;;;8.50;1.02;;;11.90;99.90;;;;;;5133045;27;20025;-77
2022/02/08 12:55:45;;;;;;;13.00;1.65;;;12.00;99.90;;;;;;5126665;27;20042;-77
2022/02/08 12:58:29;;;;;;;6.45;1.42;;;11.90;99.90;;;;;;5132171;27;20024;-77
2022/02/08 13:01:20;;;;;;;13.93;1.50;;;11.90;99.90;;;;;;5132661;27;20038;-78
2022/02/08 13:06:35;;;;;;;7.20;1.40;;;12.00;99.90;;;;;;5134171;27;20033;-77
2022/02/08 14:03:45;;;;;;;5.45;0.98;;;12.10;99.90;;;;;;5135898;27;20406;-81
2022/02/08 14:06:19;;;;;;;6.07;1.05;;;12.10;99.90;;;;;;5128496;27;20023;-80
2022/02/08 14:16:32;;;;;;;3.97;1.50;;;12.10;99.90;;;;;;5113622;28;20024;-81
2022/02/08 14:21:55;;;;;;;4.55;1.48;;;12.10;99.90;;;;;;5123460;28;20055;-80
2022/02/08 14:25:20;;;;;;;4.45;1.23;;;12.10;99.90;;;;;;5135683;28;20038;-80
2022/02/08 14:29:54;;;;;;;0.65;0.50;;;12.10;99.90;;;;;;5136468;27;20122;-79
2022/02/08 14:32:26;;;;;;;4.93;1.88;;;12.10;99.90;;;;;;5136629;28;20031;-80
2022/02/08 14:35:26;;;;;;;10.40;1.35;;;12.00;99.90;;;;;;5137247;28;20443;-80
2022/02/08 15:05:24;;;;;;;7.65;1.40;;;11.80;99.90;;;;;;5138113;28;20070;-79
2022/02/08 15:10:40;;;;;;;5.97;2.55;;;11.60;99.90;;;;;;5140845;27;20035;-80
2022/02/08 15:13:06;;;;;;;8.05;1.42;;;11.70;99.90;;;;;;5140115;27;20072;-81
2022/02/08 15:17:59;;;;;;;6.32;1.20;;;11.80;99.90;;;;;;5140975;27;20023;-79
2022/02/08 15:20:26;;;;;;;2.10;1.38;;;11.80;99.90;;;;;;5140438;27;20030;-80
2022/02/08 15:22:56;;;;;;;4.30;0.85;;;11.90;99.90;;;;;;5141167;27;20023;-79
2022/02/08 15:25:22;;;;;;;3.92;0.93;;;12.00;99.90;;;;;;5143389;27;20016;-80
2022/02/08 15:27:48;;;;;;;3.95;1.20;;;11.90;99.90;;;;;;5141182;27;20023;-79
2022/02/08 15:30:13;;;;;;;5.72;0.95;;;11.90;99.90;;;;;;5139964;27;20035;-81
2022/02/08 15:32:40;;;;;;;7.45;1.58;;;11.90;99.90;;;;;;5137894;27;20185;-78
2022/02/08 15:35:07;;;;;;;6.50;1.23;;;11.90;99.90;;;;;;5139877;27;20023;-79
2022/02/08 15:37:32;;;;;;;7.55;1.48;;;11.80;99.90;;;;;;5139662;27;20139;-74
2022/02/08 15:39:59;;;;;;;4.97;1.35;;;11.80;99.90;;;;;;5122097;27;20023;-78
2022/02/08 15:42:30;;;;;;;3.83;1.20;;;11.80;99.90;;;;;;5119233;28;20103;-80
2022/02/08 15:45:06;;;;;;;9.30;1.70;;;11.80;99.90;;;;;;5119403;28;20024;-76
2022/02/08 15:47:31;;;;;;;4.03;0.95;;;11.70;99.90;;;;;;5117490;28;20023;-79
2022/02/08 15:50:02;;;;;;;8.30;1.50;;;11.70;99.90;;;;;;5122431;27;20095;-80
2022/02/08 15:55:29;;;;;;;7.53;1.80;;;11.60;99.90;;;;;;5103230;27;20043;-79
2022/02/08 16:00:50;;;;;;;5.15;1.27;;;11.50;99.90;;;;;;5117778;27;20433;-80
2022/02/08 16:09:16;;;;;;;3.00;1.38;;;11.30;99.90;;;;;;5117758;28;20045;-80
2022/02/08 16:14:16;;;;;;;6.18;2.05;;;11.20;99.90;;;;;;5118694;28;20008;-80
2022/02/08 16:16:56;;;;;;;10.18;1.42;;;11.20;99.90;;;;;;5128069;27;20019;-80
2022/02/08 16:22:26;;;;;;;9.45;1.30;;;11.10;99.90;;;;;;5122924;28;20552;-78
2022/02/08 16:59:24;;;;;;;8.43;1.67;;;10.80;99.90;;;;;;5115917;28;20015;-78
2022/02/08 17:01:51;;;;;;;6.38;1.00;;;10.80;99.90;;;;;;5117150;28;20055;-80
2022/02/08 17:04:17;;;;;;;4.13;1.33;;;10.80;99.90;;;;;;5116118;28;20064;-79
2022/02/08 17:06:42;;;;;;;7.53;1.67;;;10.70;99.90;;;;;;5116168;28;20047;-81
2022/02/08 17:09:13;;;;;;;3.90;1.73;;;10.70;99.90;;;;;;5117041;28;20178;-80
2022/02/08 17:12:04;;;;;;;3.38;1.67;;;10.70;99.90;;;;;;5116256;28;20043;-81
2022/02/08 17:45:05;;;;;;;13.70;1.80;;;10.40;99.90;;;;;;5133418;27;20359;-77
2022/02/08 17:46:34;;;;;;;4.22;1.40;;;10.40;99.90;;;;;;5118894;27;20034;-75
2022/02/08 17:48:59;;;;;;;9.63;1.70;;;10.40;99.90;;;;;;5119179;27;20023;-76
2022/02/08 17:51:25;;;;;;;5.95;1.00;;;10.40;99.90;;;;;;5123362;27;20031;-76
2022/02/08 17:53:50;;;;;;;4.13;1.23;;;10.40;99.90;;;;;;5126502;27;20016;-77
2022/02/08 17:56:16;;;;;;;7.28;1.70;;;10.40;99.90;;;;;;5126427;27;20400;-77
2022/02/08 17:58:44;;;;;;;14.13;1.60;;;10.40;99.90;;;;;;5124054;28;20031;-75
2022/02/08 18:01:09;;;;;;;7.50;1.60;;;10.40;99.90;;;;;;5120544;27;20058;-74
2022/02/08 18:03:35;;;;;;;6.25;1.20;;;10.40;99.90;;;;;;5125899;27;20071;-77
2022/02/08 18:06:00;;;;;;;6.47;1.27;;;10.30;99.90;;;;;;5121449;27;20065;-74
2022/02/08 18:08:27;;;;;;;5.68;1.35;;;10.30;99.90;;;;;;5120498;27;20023;-78
2022/02/08 18:10:56;;;;;;;5.30;1.30;;;10.40;99.90;;;;;;5125102;28;20113;-77
2022/02/08 18:13:24;;;;;;;3.28;1.40;;;10.40;99.90;;;;;;5118783;28;20019;-77
2022/02/08 18:15:50;;;;;;;7.13;1.30;;;10.40;99.90;;;;;;5118568;28;20340;-77
2022/02/08 18:18:26;;;;;;;7.65;1.83;;;10.40;99.90;;;;;;5120773;28;20032;-77
2022/02/08 18:20:56;;;;;;;7.45;1.15;;;10.40;99.90;;;;;;5122847;28;20375;-75
2022/02/08 18:23:44;;;;;;;10.40;2.42;;;10.40;99.90;;;;;;5126621;27;20064;-76
2022/02/08 19:17:07;;;;;;;4.60;1.50;;;10.10;99.90;;;;;;5138187;27;20053;-76
2022/02/08 19:19:39;;;;;;;7.85;1.40;;;10.20;99.90;;;;;;5137277;27;20536;-75
2022/02/08 19:22:05;;;;;;;13.95;2.05;;;10.20;99.90;;;;;;5137272;27;20110;-76
2022/02/08 19:24:31;;;;;;;11.40;2.00;;;10.20;99.90;;;;;;5120656;27;20431;-75
2022/02/08 19:27:01;;;;;;;5.78;1.48;;;10.20;99.90;;;;;;5116164;28;20019;-76
2022/02/08 19:29:34;;;;;;;9.77;1.80;;;10.20;99.90;;;;;;5115515;28;20051;-76
2022/02/08 19:32:02;;;;;;;5.55;1.98;;;10.20;99.90;;;;;;5115499;28;20040;-77
2022/02/08 19:34:27;;;;;;;9.48;2.13;;;10.20;99.90;;;;;;5116416;28;20135;-75
2022/02/08 19:36:57;;;;;;;8.57;1.75;;;10.20;99.90;;;;;;5116084;28;20475;-78
2022/02/08 19:39:23;;;;;;;6.30;1.58;;;10.20;99.90;;;;;;5114774;27;20101;-76
2022/02/08 19:41:48;;;;;;;4.43;1.45;;;10.20;99.90;;;;;;5114928;27;20023;-76
2022/02/08 19:44:14;;;;;;;12.15;2.00;;;10.20;99.90;;;;;;5115247;28;20446;-76
2022/02/08 19:46:40;;;;;;;9.05;1.75;;;10.20;99.90;;;;;;5114687;28;20475;-77
2022/02/08 19:49:07;;;;;;;11.82;3.03;;;10.20;99.90;;;;;;5114553;28;20469;-77
2022/02/08 19:51:34;;;;;;;5.05;1.55;;;10.20;99.90;;;;;;5114375;28;20046;-77
2022/02/08 19:54:03;;;;;;;6.70;1.35;;;10.20;99.90;;;;;;5114098;28;20148;-75
2022/02/08 19:56:35;;;;;;;6.25;1.20;;;10.10;99.90;;;;;;5115290;27;20419;-78
2022/02/08 19:59:01;;;;;;;7.25;1.27;;;10.20;99.90;;;;;;5116300;28;20099;-76
2022/02/08 20:03:59;;;;;;;6.35;1.30;;;10.10;99.90;;;;;;5115394;28;20042;-77
2022/02/08 20:06:25;;;;;;;8.10;1.92;;;10.10;99.90;;;;;;5114446;27;20024;-77
2022/02/08 20:08:52;;;;;;;6.90;1.98;;;10.10;99.90;;;;;;5115265;27;20035;-77
2022/02/08 20:11:18;;;;;;;4.78;1.45;;;10.20;99.90;;;;;;5118991;27;20035;-76
2022/02/08 20:13:51;;;;;;;5.40;1.50;;;10.20;99.90;;;;;;5120650;27;20046;-77
2022/02/08 20:16:21;;;;;;;8.48;1.77;;;10.20;99.90;;;;;;5117133;27;20104;-76
2022/02/08 20:18:50;;;;;;;7.50;1.60;;;10.20;99.90;;;;;;5113989;27;20073;-76
2022/02/08 20:21:17;;;;;;;6.37;1.60;;;10.20;99.90;;;;;;5111406;28;20038;-78
2022/02/08 20:23:43;;;;;;;6.28;1.88;;;10.10;99.90;;;;;;5114167;28;20099;-76
2022/02/08 20:26:09;;;;;;;5.15;1.88;;;10.20;99.90;;;;;;5118985;27;20111;-76
2022/02/08 20:28:53;;;;;;;3.83;1.40;;;10.10;99.90;;;;;;5115117;27;20391;-76
2022/02/08 20:31:19;;;;;;;4.05;1.25;;;10.10;99.90;;;;;;5113676;28;20043;-76
2022/02/08 20:33:46;;;;;;;2.30;1.50;;;10.10;99.90;;;;;;5114702;28;20396;-76
2022/02/08 20:36:12;;;;;;;5.03;1.27;;;10.10;99.90;;;;;;5114131;28;20024;-77
2022/02/08 20:38:38;;;;;;;3.28;1.20;;;10.10;99.90;;;;;;5115036;27;20065;-76
2022/02/08 20:41:05;;;;;;;6.25;1.65;;;10.10;99.90;;;;;;5119160;27;20374;-77